SLRY  Reyes Airport

Add Bookmark

Reyes, Bolivia

Status IATA
Operational REY
Latitude Longitude
14° 18' 15" S 67° 21' 12" W
-14.304400 -67.353401
Local (DST -4) UTC (GMT -4)
Oct 20, 2014 06:45 Oct 20, 2014 22:45
Sunrise-Sunset Local UTC
Begin Civil Twilight 05:36 09:36
Sunrise 05:58 09:58
Sunset 06:29 22:29
End Civil Twilight 06:51 22:51

Current Weather

METAR Observed VFR
SLRY 202200Z 14003KT 9999 FEW010 FEW025CB BKN070 BKN200 23/21 Q1010 Mon, Oct 20, 2014 @ 22:00 UTC
(45 Minutes ago)
Visual Flight Rules
Wind Visibility Clouds Conditions
140° at 3 knots (6 kph) 10 km or more
  • Few at 1,000' AGL
  • Few at 2,500' AGL
  • Broken at 7,000' AGL
  • Broken at 20,000' AGL
  • No significant weather
Temperatures Readings Precipitation
Current Temp 23°C (73°F)
Dewpoint 21°C (70°F)
Humidity 89%
Altimeter 29.82"Hg
Sea Level Pressure 1010mb
Field Elevation 918.64'
None Recorded

Additional weather within a 92.6km radius of SLRY

Map ICAO Location
SLRQ 20.7km S (229°)

24 Hour Weather History

Loading
-

24 Hour Weather Graphs

Loading
-

CheckWX.com is intended as a tool to help pilots better visualize weather data. It is not intended as a substitute for an official weather briefing obtained from a Flight Service Station. CheckWX.com does not meet the FAA requirements for an official pre-flight weather briefing. Therefore, it's important that pilots still call and obtain an official FSS pre-flight weather briefing.